Overview Statistics Trail Chart Weather Telemetry Raw packets
 

This is the latest recevied weather packets stored in our database for station/object SP2CDN-10. If no packets are shown the sender has not sent any weather packets the latest 10 day(s).

<< 1 2 3 4 5 >>
Time Temp. Humidity Pressure Rain* Wind** Luminosity Snow
1788657686 12.22° C 100% 1014.3 hPa - - - -
1788655404 12.22° C 100% 1014.3 hPa - - - -
1788653123 12.78° C 100% 1014.3 hPa - - - -
1788650841 12.22° C 100% 1014 hPa - - - -
1788648559 12.22° C 100% 1013.9 hPa - - - -
1788646278 12.22° C 100% 1013.8 hPa - - - -
1788643996 12.22° C 100% 1013.5 hPa - - - -
1788641715 12.22° C 100% 1013.5 hPa - - - -
1788639433 12.22° C 100% 1013.4 hPa - - - -
1788637151 12.22° C 100% 1013.1 hPa - - - -
1788634870 12.22° C 100% 1012.9 hPa - - - -
1788632591 12.22° C 100% 1012.7 hPa - - - -
1788630307 12.78° C 100% 1012.4 hPa - - - -
1788628028 13.89° C 100% 1012.3 hPa - - - -
1788625744 15.56° C 82% 1011.8 hPa - - - -
1788623462 18.33° C 61% 1011.1 hPa - - - -
1788621180 17.78° C 63% 1011.5 hPa - - - -
1788618899 19.44° C 57% 1010.9 hPa - - - -
1788616617 21.11° C 51% 1010.7 hPa - - - -
1788614336 21.67° C 55% 1010.4 hPa - - - -
1788612054 18.89° C 60% 1010.6 hPa - - - -
1788609772 18.89° C 59% 1010.4 hPa - - - -
1788607491 20° C 59% 1010.8 hPa - - - -
1788605209 18.89° C 58% 1010.6 hPa - - - -
1788602564 18.89° C 56% 1010.5 hPa - - - -

* Rain since midnight (hover to see other rain measurements)
** Current wind speed in m/s (hover to see current wind gust speed)